Time;durP1;ratioP1;P1;durP2;ratioP2;P2;SDS_P1;SDS_P2;PMS_P1;PMS_P2;Temp;Humidity;BMP_temperature;BMP_pressure;BME280_temperature;BME280_humidity;BME280_pressure;Samples;Min_cycle;Max_cycle;Signal;HPM_P1;HPM_P2
2023/07/07 00:01:32;;;;;;;3.88;3.20;;;;;;;;;;10065458;28;20091;-60
2023/07/07 00:06:27;;;;;;;4.28;2.78;;;;;;;;;;10063705;28;20130;-62
2023/07/07 00:11:22;;;;;;;4.50;2.30;;;;;;;;;;10064598;28;20427;-62
2023/07/07 00:16:15;;;;;;;4.10;2.92;;;;;;;;;;10031821;28;20042;-62
2023/07/07 00:21:07;;;;;;;3.75;3.20;;;;;;;;;;10024202;28;20454;-62
2023/07/07 00:26:00;;;;;;;2.92;2.65;;;;;;;;;;10050677;28;20049;-62
2023/07/07 00:30:52;;;;;;;3.80;2.50;;;;;;;;;;10053107;28;20044;-62
2023/07/07 00:35:46;;;;;;;4.50;2.45;;;;;;;;;;10038218;28;20107;-61
2023/07/07 00:40:38;;;;;;;3.40;2.33;;;;;;;;;;10025611;28;20053;-63
2023/07/07 00:45:30;;;;;;;3.30;2.45;;;;;;;;;;10048601;28;20057;-62
2023/07/07 00:50:24;;;;;;;3.20;2.63;;;;;;;;;;10064958;28;20045;-62
2023/07/07 00:55:20;;;;;;;3.95;2.50;;;;;;;;;;10024763;28;20052;-62
2023/07/07 01:00:12;;;;;;;3.88;3.08;;;;;;;;;;10056769;28;20038;-62
2023/07/07 01:05:05;;;;;;;2.72;2.25;;;;;;;;;;10041574;28;20129;-63
2023/07/07 01:09:57;;;;;;;3.67;3.38;;;;;;;;;;10023825;28;20435;-62
2023/07/07 01:14:51;;;;;;;2.60;2.20;;;;;;;;;;10022769;28;20107;-62
2023/07/07 01:19:56;;;;;;;3.05;2.70;;;;;;;;;;10041372;28;20030;-61
2023/07/07 01:25:05;;;;;;;3.42;2.70;;;;;;;;;;10063282;28;20055;-63
2023/07/07 01:30:09;;;;;;;2.83;2.30;;;;;;;;;;10064761;28;20050;-62
2023/07/07 01:35:07;;;;;;;3.03;2.70;;;;;;;;;;10070172;28;20367;-66
2023/07/07 01:39:59;;;;;;;3.03;2.17;;;;;;;;;;10070100;28;20045;-62
2023/07/07 01:45:03;;;;;;;3.53;2.70;;;;;;;;;;10044959;28;20050;-62
2023/07/07 01:50:07;;;;;;;4.43;2.45;;;;;;;;;;10055079;28;20144;-61
2023/07/07 01:55:22;;;;;;;4.75;2.75;;;;;;;;;;10044132;28;20435;-62
2023/07/07 02:00:15;;;;;;;3.25;2.53;;;;;;;;;;10054523;28;20049;-62
2023/07/07 02:05:11;;;;;;;3.10;2.75;;;;;;;;;;10068469;28;20171;-61
2023/07/07 02:10:06;;;;;;;3.47;2.28;;;;;;;;;;10050117;28;20038;-62
2023/07/07 02:14:58;;;;;;;3.50;2.40;;;;;;;;;;10030097;28;20100;-62
2023/07/07 02:19:50;;;;;;;2.80;2.50;;;;;;;;;;10028546;28;20075;-63
2023/07/07 02:24:42;;;;;;;3.45;2.25;;;;;;;;;;10047533;28;20054;-62
2023/07/07 02:29:34;;;;;;;3.97;3.05;;;;;;;;;;10067550;28;20690;-62
2023/07/07 02:34:26;;;;;;;3.63;2.40;;;;;;;;;;10063256;28;20080;-62
2023/07/07 02:39:18;;;;;;;2.88;2.47;;;;;;;;;;10066548;28;20765;-63
2023/07/07 02:44:10;;;;;;;3.20;2.28;;;;;;;;;;10036027;28;20057;-63
2023/07/07 02:49:01;;;;;;;3.53;2.75;;;;;;;;;;10041108;28;20046;-62
2023/07/07 02:53:54;;;;;;;2.17;1.90;;;;;;;;;;10052771;28;20068;-62
2023/07/07 02:58:46;;;;;;;3.40;2.22;;;;;;;;;;10069037;28;20531;-62
2023/07/07 03:03:39;;;;;;;4.60;2.90;;;;;;;;;;10065764;28;20041;-62
2023/07/07 03:08:31;;;;;;;3.05;2.15;;;;;;;;;;10046731;28;20072;-62
2023/07/07 03:13:23;;;;;;;3.28;2.80;;;;;;;;;;10027382;28;20053;-62
2023/07/07 03:18:18;;;;;;;2.97;2.25;;;;;;;;;;10041730;28;20414;-62
2023/07/07 03:23:13;;;;;;;3.05;2.40;;;;;;;;;;10034149;28;20080;-63
2023/07/07 03:28:08;;;;;;;4.32;2.25;;;;;;;;;;10054384;28;20053;-62
2023/07/07 03:33:04;;;;;;;2.38;2.17;;;;;;;;;;10057387;28;20077;-62
2023/07/07 03:37:57;;;;;;;2.83;2.25;;;;;;;;;;10025529;28;20037;-61
2023/07/07 03:42:49;;;;;;;3.97;2.55;;;;;;;;;;10025778;28;20093;-61
2023/07/07 03:47:41;;;;;;;2.85;2.53;;;;;;;;;;10062878;28;20573;-61
2023/07/07 03:52:33;;;;;;;3.05;2.33;;;;;;;;;;10063983;28;20404;-61
2023/07/07 03:57:26;;;;;;;4.35;2.35;;;;;;;;;;10051927;28;20048;-60
2023/07/07 04:02:18;;;;;;;2.30;2.15;;;;;;;;;;10062603;28;20121;-63
2023/07/07 04:07:11;;;;;;;2.67;2.47;;;;;;;;;;10057916;28;20053;-62
2023/07/07 04:12:07;;;;;;;3.17;2.08;;;;;;;;;;10062958;28;20050;-61
2023/07/07 04:16:59;;;;;;;3.38;2.92;;;;;;;;;;10039468;28;20107;-59
2023/07/07 04:21:51;;;;;;;2.65;2.17;;;;;;;;;;10062710;28;20033;-61
2023/07/07 04:26:43;;;;;;;2.85;1.90;;;;;;;;;;10062464;28;20424;-61
2023/07/07 04:31:35;;;;;;;2.83;2.05;;;;;;;;;;10065967;28;20418;-62
2023/07/07 04:36:27;;;;;;;3.03;2.22;;;;;;;;;;10062332;28;20277;-61
2023/07/07 04:41:22;;;;;;;2.10;1.90;;;;;;;;;;10064248;28;20455;-61
2023/07/07 04:46:17;;;;;;;2.75;2.47;;;;;;;;;;10064630;28;20046;-60
2023/07/07 04:51:10;;;;;;;2.45;2.25;;;;;;;;;;10065456;28;20053;-61
2023/07/07 04:56:09;;;;;;;3.53;2.20;;;;;;;;;;10064661;28;20045;-62
2023/07/07 05:01:16;;;;;;;2.35;2.10;;;;;;;;;;10029356;28;20048;-62
2023/07/07 05:06:10;;;;;;;3.03;2.78;;;;;;;;;;10051054;28;20065;-61
2023/07/07 05:11:02;;;;;;;2.30;2.10;;;;;;;;;;10072381;28;20045;-61
2023/07/07 05:16:03;;;;;;;3.50;2.10;;;;;;;;;;10070576;28;20041;-61
2023/07/07 05:20:56;;;;;;;2.42;1.95;;;;;;;;;;10072837;28;20128;-61
2023/07/07 05:25:49;;;;;;;2.20;2.00;;;;;;;;;;10070696;28;20060;-69
2023/07/07 05:30:41;;;;;;;4.50;3.30;;;;;;;;;;10069551;28;20141;-67
2023/07/07 05:35:33;;;;;;;4.22;3.78;;;;;;;;;;10070116;28;20060;-67
2023/07/07 05:40:28;;;;;;;6.38;4.78;;;;;;;;;;10069389;28;20475;-64
2023/07/07 05:45:21;;;;;;;5.43;4.90;;;;;;;;;;10063877;28;20497;-64
2023/07/07 05:50:13;;;;;;;6.38;5.78;;;;;;;;;;10069524;28;20049;-64
2023/07/07 05:55:06;;;;;;;7.47;6.20;;;;;;;;;;10070038;28;20371;-64
2023/07/07 05:59:58;;;;;;;7.53;6.10;;;;;;;;;;10053317;28;20073;-64
2023/07/07 06:04:50;;;;;;;7.55;6.65;;;;;;;;;;10030667;28;20054;-63
2023/07/07 06:09:49;;;;;;;6.68;6.05;;;;;;;;;;10065155;28;20132;-64
2023/07/07 06:14:40;;;;;;;7.38;6.53;;;;;;;;;;10049394;28;20045;-62
2023/07/07 06:19:32;;;;;;;6.88;6.28;;;;;;;;;;10051991;28;20060;-63
2023/07/07 06:24:24;;;;;;;13.13;6.80;;;;;;;;;;10055444;28;20072;-63
2023/07/07 06:29:16;;;;;;;7.25;6.43;;;;;;;;;;10064582;28;20076;-63
2023/07/07 06:34:08;;;;;;;14.05;6.88;;;;;;;;;;10066149;28;20652;-62
2023/07/07 06:39:00;;;;;;;9.07;7.72;;;;;;;;;;10030332;28;20056;-63
2023/07/07 06:43:53;;;;;;;9.23;7.22;;;;;;;;;;10058592;28;20107;-63
2023/07/07 06:48:45;;;;;;;8.68;7.32;;;;;;;;;;10054891;28;20041;-62
2023/07/07 06:53:36;;;;;;;8.05;6.68;;;;;;;;;;10037589;28;20133;-61
2023/07/07 06:58:30;;;;;;;9.90;7.30;;;;;;;;;;10063939;28;20494;-61
2023/07/07 07:03:22;;;;;;;9.43;6.38;;;;;;;;;;10053045;28;20054;-66
2023/07/07 07:08:14;;;;;;;7.80;6.30;;;;;;;;;;10051257;28;20049;-66
2023/07/07 07:13:08;;;;;;;8.43;7.50;;;;;;;;;;10065720;28;20041;-66
2023/07/07 07:18:00;;;;;;;11.23;6.72;;;;;;;;;;10056766;28;20058;-65
2023/07/07 07:22:52;;;;;;;8.10;6.28;;;;;;;;;;10064915;28;20431;-67
2023/07/07 07:27:44;;;;;;;9.45;7.28;;;;;;;;;;10063789;28;20096;-61
2023/07/07 07:32:36;;;;;;;11.70;7.70;;;;;;;;;;10065480;28;20479;-65
2023/07/07 07:37:28;;;;;;;11.30;6.75;;;;;;;;;;10062133;28;20053;-64
2023/07/07 07:42:19;;;;;;;7.28;6.57;;;;;;;;;;10046630;28;20137;-65
2023/07/07 07:47:11;;;;;;;8.02;7.10;;;;;;;;;;10034214;28;20058;-66
2023/07/07 07:52:04;;;;;;;7.90;6.60;;;;;;;;;;10038994;28;20092;-63
2023/07/07 07:56:56;;;;;;;7.80;6.55;;;;;;;;;;10049579;28;20046;-67
2023/07/07 08:01:48;;;;;;;7.55;6.53;;;;;;;;;;10052747;28;20121;-64
2023/07/07 08:06:40;;;;;;;6.50;5.85;;;;;;;;;;10060549;28;20073;-66
2023/07/07 08:11:41;;;;;;;11.52;7.88;;;;;;;;;;10038806;28;20050;-66
2023/07/07 08:16:33;;;;;;;6.30;5.68;;;;;;;;;;10024733;28;20376;-65
2023/07/07 08:21:25;;;;;;;7.53;5.28;;;;;;;;;;10063640;28;20076;-63
2023/07/07 08:26:17;;;;;;;6.47;4.68;;;;;;;;;;10063743;28;20057;-66
2023/07/07 08:31:13;;;;;;;6.82;5.30;;;;;;;;;;10048169;28;20053;-65
2023/07/07 08:36:04;;;;;;;5.72;4.15;;;;;;;;;;10058778;28;20050;-67
2023/07/07 08:40:56;;;;;;;6.30;4.43;;;;;;;;;;10062110;28;20124;-65
2023/07/07 08:46:09;;;;;;;6.78;4.60;;;;;;;;;;10058428;28;20085;-65
2023/07/07 08:51:05;;;;;;;5.60;4.72;;;;;;;;;;10045467;28;20033;-64
2023/07/07 08:56:29;;;;;;;6.97;4.50;;;;;;;;;;10045856;28;20045;-65
2023/07/07 09:01:37;;;;;;;6.25;4.30;;;;;;;;;;10087145;28;20072;-66
2023/07/07 09:07:02;;;;;;;4.80;3.65;;;;;;;;;;10063403;28;20053;-65
2023/07/07 09:11:59;;;;;;;4.93;3.78;;;;;;;;;;10028930;28;20037;-66
2023/07/07 09:16:53;;;;;;;9.95;4.13;;;;;;;;;;10063389;28;20077;-63
2023/07/07 09:22:07;;;;;;;6.93;3.47;;;;;;;;;;10053900;28;20073;-67
2023/07/07 09:27:05;;;;;;;3.67;3.35;;;;;;;;;;10059233;28;20132;-65
2023/07/07 09:31:59;;;;;;;7.40;4.55;;;;;;;;;;10056024;28;20046;-65
2023/07/07 09:37:04;;;;;;;5.80;4.93;;;;;;;;;;10052340;28;20042;-66
2023/07/07 09:42:37;;;;;;;9.93;3.95;;;;;;;;;;10055888;28;20124;-65
2023/07/07 09:47:29;;;;;;;5.93;3.65;;;;;;;;;;10034168;28;20511;-65
2023/07/07 09:52:48;;;;;;;11.25;4.97;;;;;;;;;;10046425;28;20042;-65
2023/07/07 09:57:43;;;;;;;5.55;3.50;;;;;;;;;;10048231;28;20153;-64
2023/07/07 10:02:35;;;;;;;8.02;4.22;;;;;;;;;;10053449;28;20115;-61
2023/07/07 10:07:33;;;;;;;5.38;3.05;;;;;;;;;;10033841;28;20665;-64
2023/07/07 10:12:25;;;;;;;;;;;;;;;;;;10064508;28;20052;-65
2023/07/07 10:17:43;;;;;;;8.20;4.07;;;;;;;;;;10047608;28;19965;-65
2023/07/07 10:22:35;;;;;;;8.77;2.70;;;;;;;;;;10069004;28;20042;-64
2023/07/07 10:27:27;;;;;;;5.53;3.17;;;;;;;;;;10050075;28;20065;-65
2023/07/07 10:32:23;;;;;;;4.25;3.08;;;;;;;;;;10067563;28;20140;-64
2023/07/07 10:37:28;;;;;;;6.43;4.82;;;;;;;;;;10066707;28;20045;-65
2023/07/07 10:42:23;;;;;;;12.43;4.32;;;;;;;;;;10065572;28;20140;-62
2023/07/07 10:47:25;;;;;;;8.45;4.32;;;;;;;;;;10059252;28;20063;-63
2023/07/07 10:52:43;;;;;;;7.40;4.55;;;;;;;;;;10063703;28;20049;-64
2023/07/07 10:57:55;;;;;;;6.60;3.90;;;;;;;;;;10043469;28;20535;-66
2023/07/07 11:03:17;;;;;;;13.85;4.90;;;;;;;;;;10059308;28;20041;-65
2023/07/07 11:08:53;;;;;;;5.40;3.55;;;;;;;;;;10061363;28;20065;-63
2023/07/07 11:14:04;;;;;;;6.13;3.35;;;;;;;;;;10056211;28;20675;-65
2023/07/07 11:19:04;;;;;;;4.03;3.25;;;;;;;;;;10048471;28;20050;-64
2023/07/07 11:24:04;;;;;;;5.95;3.42;;;;;;;;;;10064425;28;20464;-65
2023/07/07 11:29:20;;;;;;;4.82;2.97;;;;;;;;;;10055920;28;20046;-62
2023/07/07 11:34:21;;;;;;;3.75;3.22;;;;;;;;;;10062651;28;20415;-66
2023/07/07 11:39:37;;;;;;;11.15;3.42;;;;;;;;;;10058836;28;20048;-65
2023/07/07 11:45:10;;;;;;;7.90;4.45;;;;;;;;;;10054822;28;20093;-65
2023/07/07 11:50:18;;;;;;;4.53;3.05;;;;;;;;;;10054128;28;20041;-63
2023/07/07 11:55:48;;;;;;;4.75;2.92;;;;;;;;;;10081654;28;20486;-63
2023/07/07 12:00:55;;;;;;;4.20;3.15;;;;;;;;;;10071456;28;20053;-62
2023/07/07 12:05:47;;;;;;;5.90;3.83;;;;;;;;;;10059708;28;20091;-63
2023/07/07 12:10:45;;;;;;;5.00;3.72;;;;;;;;;;10052021;28;20045;-64
2023/07/07 12:15:44;;;;;;;9.55;4.10;;;;;;;;;;10045682;28;20041;-62
2023/07/07 12:20:40;;;;;;;5.18;3.95;;;;;;;;;;10049941;28;20117;-62
2023/07/07 12:25:33;;;;;;;4.82;3.70;;;;;;;;;;10058249;28;20136;-63
2023/07/07 12:30:26;;;;;;;34.40;5.88;;;;;;;;;;10065991;28;20052;-64
2023/07/07 12:35:26;;;;;;;6.43;3.42;;;;;;;;;;10055948;28;20042;-61
2023/07/07 12:40:19;;;;;;;4.63;3.10;;;;;;;;;;10059914;28;20044;-62
2023/07/07 12:45:23;;;;;;;4.65;3.17;;;;;;;;;;10068634;28;20056;-60
2023/07/07 12:50:28;;;;;;;5.45;3.38;;;;;;;;;;10034742;28;20061;-60
2023/07/07 12:55:28;;;;;;;4.95;2.85;;;;;;;;;;10036716;28;20045;-61
2023/07/07 13:00:32;;;;;;;5.57;3.25;;;;;;;;;;10036149;28;20391;-61
2023/07/07 13:05:24;;;;;;;4.38;3.55;;;;;;;;;;10035546;28;20418;-61
2023/07/07 13:10:41;;;;;;;3.47;2.92;;;;;;;;;;10023368;28;20069;-61
2023/07/07 13:15:33;;;;;;;4.45;3.47;;;;;;;;;;10043066;28;20041;-61
2023/07/07 13:20:26;;;;;;;4.63;3.40;;;;;;;;;;10045425;28;20434;-62
2023/07/07 13:25:29;;;;;;;3.70;2.83;;;;;;;;;;10054718;28;20046;-60
2023/07/07 13:30:32;;;;;;;3.30;3.00;;;;;;;;;;10069726;28;20051;-62
2023/07/07 13:35:31;;;;;;;6.47;2.95;;;;;;;;;;10062443;28;20046;-63
2023/07/07 13:40:29;;;;;;;12.05;3.35;;;;;;;;;;10029295;28;20054;-62
2023/07/07 13:45:22;;;;;;;5.68;3.88;;;;;;;;;;10040527;28;20103;-61
2023/07/07 13:50:24;;;;;;;4.85;2.97;;;;;;;;;;10024469;28;20054;-62
2023/07/07 13:55:16;;;;;;;3.92;3.47;;;;;;;;;;10067333;28;20099;-61
2023/07/07 14:00:17;;;;;;;6.75;3.40;;;;;;;;;;10062816;28;20080;-61
2023/07/07 14:05:13;;;;;;;13.73;4.50;;;;;;;;;;10066646;28;20672;-62
2023/07/07 14:10:20;;;;;;;10.20;3.20;;;;;;;;;;10046803;28;21306;-53
2023/07/07 14:15:14;;;;;;;6.43;3.13;;;;;;;;;;10051263;28;20487;-56
2023/07/07 14:20:20;;;;;;;4.55;2.95;;;;;;;;;;10054087;28;20061;-56
2023/07/07 14:25:16;;;;;;;2.83;2.58;;;;;;;;;;10054960;28;20050;-54
2023/07/07 14:30:20;;;;;;;3.97;3.40;;;;;;;;;;10062711;28;20754;-57
2023/07/07 14:35:18;;;;;;;4.20;2.70;;;;;;;;;;10058720;28;20506;-55
2023/07/07 14:40:34;;;;;;;3.90;2.88;;;;;;;;;;10043015;28;20455;-55
2023/07/07 14:45:30;;;;;;;4.35;3.92;;;;;;;;;;10059204;28;20502;-55
2023/07/07 14:50:28;;;;;;;4.30;3.22;;;;;;;;;;10057736;28;20099;-56
2023/07/07 14:55:22;;;;;;;7.70;3.95;;;;;;;;;;10049992;28;20103;-56
2023/07/07 15:00:34;;;;;;;5.18;3.83;;;;;;;;;;10056897;28;20069;-56
2023/07/07 15:05:33;;;;;;;3.47;2.92;;;;;;;;;;10050840;28;20053;-57
2023/07/07 15:10:26;;;;;;;6.13;3.30;;;;;;;;;;10042510;28;20122;-57
2023/07/07 15:15:18;;;;;;;4.78;3.25;;;;;;;;;;10057406;28;20491;-56
2023/07/07 15:20:15;;;;;;;4.38;3.35;;;;;;;;;;10059778;28;20053;-53
2023/07/07 15:25:07;;;;;;;11.65;4.10;;;;;;;;;;10063536;28;20414;-56
2023/07/07 15:29:59;;;;;;;7.93;3.60;;;;;;;;;;10066557;28;20042;-57
2023/07/07 15:34:51;;;;;;;7.05;3.70;;;;;;;;;;10063620;28;20423;-59
2023/07/07 15:39:45;;;;;;;5.47;3.20;;;;;;;;;;10037387;28;20371;-59
2023/07/07 15:44:37;;;;;;;4.15;2.83;;;;;;;;;;10031168;28;20379;-58
2023/07/07 15:49:29;;;;;;;8.05;3.72;;;;;;;;;;10056217;28;20053;-57
2023/07/07 15:54:21;;;;;;;12.65;5.13;;;;;;;;;;10060436;28;20077;-59
2023/07/07 15:59:18;;;;;;;22.80;5.93;;;;;;;;;;10057569;28;20050;-59
2023/07/07 16:04:10;;;;;;;6.05;3.15;;;;;;;;;;10061309;28;20053;-60
2023/07/07 16:09:02;;;;;;;12.65;3.92;;;;;;;;;;10054325;28;20220;-59
2023/07/07 16:13:54;;;;;;;7.28;3.40;;;;;;;;;;10073530;28;20148;-61
2023/07/07 16:18:47;;;;;;;6.20;3.38;;;;;;;;;;10061903;28;20386;-62
2023/07/07 16:23:39;;;;;;;7.70;3.20;;;;;;;;;;10065388;28;20049;-60
2023/07/07 16:28:31;;;;;;;5.47;3.38;;;;;;;;;;10072523;28;20524;-60
2023/07/07 16:33:23;;;;;;;4.18;3.05;;;;;;;;;;10062532;28;20048;-59
2023/07/07 16:38:15;;;;;;;9.05;3.45;;;;;;;;;;10061778;28;20076;-60
2023/07/07 16:43:08;;;;;;;6.95;3.40;;;;;;;;;;10083762;28;20056;-61
2023/07/07 16:48:01;;;;;;;8.02;3.13;;;;;;;;;;10071090;28;20058;-59
2023/07/07 16:52:55;;;;;;;4.15;3.60;;;;;;;;;;10062916;28;20041;-61
2023/07/07 16:57:48;;;;;;;3.78;3.20;;;;;;;;;;10069113;28;20594;-63
2023/07/07 17:02:42;;;;;;;6.60;3.47;;;;;;;;;;10077222;28;20454;-61
2023/07/07 17:07:34;;;;;;;5.35;3.03;;;;;;;;;;10055339;28;20049;-59
2023/07/07 17:12:27;;;;;;;5.75;3.28;;;;;;;;;;10045734;28;20038;-61
2023/07/07 17:17:19;;;;;;;7.85;3.90;;;;;;;;;;10061140;28;20371;-60
2023/07/07 17:22:11;;;;;;;8.52;3.55;;;;;;;;;;10060192;28;20166;-63
2023/07/07 17:27:03;;;;;;;6.53;3.60;;;;;;;;;;10057891;28;20119;-62
2023/07/07 17:31:55;;;;;;;2.80;2.58;;;;;;;;;;10064915;28;20299;-62
2023/07/07 17:36:47;;;;;;;6.88;3.42;;;;;;;;;;10064042;28;20443;-62
2023/07/07 17:41:39;;;;;;;7.10;3.38;;;;;;;;;;10071399;28;20475;-62
2023/07/07 17:46:39;;;;;;;5.72;3.50;;;;;;;;;;10054277;28;20450;-61
2023/07/07 17:51:32;;;;;;;5.65;2.70;;;;;;;;;;10037375;28;20033;-61
2023/07/07 17:56:29;;;;;;;4.07;3.47;;;;;;;;;;10069604;28;20429;-62
2023/07/07 18:01:21;;;;;;;4.38;2.90;;;;;;;;;;10070642;28;20459;-62
2023/07/07 18:06:21;;;;;;;3.75;2.72;;;;;;;;;;10051913;28;20046;-62
2023/07/07 18:11:18;;;;;;;4.78;3.45;;;;;;;;;;10068549;28;20129;-62
2023/07/07 18:16:29;;;;;;;5.90;3.05;;;;;;;;;;10068784;28;20048;-64
2023/07/07 18:21:24;;;;;;;4.63;3.28;;;;;;;;;;10061151;28;20470;-63
2023/07/07 18:26:38;;;;;;;6.13;3.00;;;;;;;;;;10082987;28;20044;-64
2023/07/07 18:31:33;;;;;;;9.25;3.58;;;;;;;;;;10071689;28;20436;-63
2023/07/07 18:36:25;;;;;;;10.13;3.50;;;;;;;;;;10081657;28;20132;-63
2023/07/07 18:41:20;;;;;;;9.32;3.78;;;;;;;;;;10056969;28;20124;-63
2023/07/07 18:46:17;;;;;;;15.43;4.78;;;;;;;;;;10068080;28;20357;-64
2023/07/07 18:51:11;;;;;;;12.53;4.53;;;;;;;;;;10067105;28;20076;-65
2023/07/07 18:56:18;;;;;;;13.85;4.85;;;;;;;;;;10076960;28;20041;-64
2023/07/07 19:01:12;;;;;;;8.70;4.85;;;;;;;;;;10065725;28;20037;-64
2023/07/07 19:06:04;;;;;;;10.50;4.43;;;;;;;;;;10055541;28;20045;-64
2023/07/07 19:10:56;;;;;;;9.52;4.85;;;;;;;;;;10048138;28;20042;-63
2023/07/07 19:15:50;;;;;;;12.43;5.20;;;;;;;;;;10062107;28;20106;-64
2023/07/07 19:20:42;;;;;;;9.90;4.80;;;;;;;;;;10075072;28;20060;-63
2023/07/07 19:25:34;;;;;;;10.57;4.75;;;;;;;;;;10068179;28;20423;-63
2023/07/07 19:30:27;;;;;;;8.00;4.50;;;;;;;;;;10069101;28;20037;-63
2023/07/07 19:35:19;;;;;;;8.95;5.13;;;;;;;;;;10059913;28;20042;-63
2023/07/07 19:40:29;;;;;;;6.68;4.28;;;;;;;;;;10059629;28;20045;-63
2023/07/07 19:45:21;;;;;;;8.63;4.88;;;;;;;;;;10054884;28;20081;-63
2023/07/07 19:50:28;;;;;;;9.27;4.05;;;;;;;;;;10055409;28;20375;-65
2023/07/07 19:55:20;;;;;;;7.30;4.32;;;;;;;;;;10042091;28;20050;-65
2023/07/07 20:00:21;;;;;;;8.77;4.72;;;;;;;;;;10045355;28;20050;-66
2023/07/07 20:05:13;;;;;;;11.27;5.25;;;;;;;;;;10066758;28;20037;-66
2023/07/07 20:10:19;;;;;;;9.05;5.55;;;;;;;;;;10065314;28;20456;-65
2023/07/07 20:15:11;;;;;;;10.90;5.15;;;;;;;;;;10061819;28;20033;-66
2023/07/07 20:20:13;;;;;;;7.20;4.30;;;;;;;;;;10065074;28;20149;-67
2023/07/07 20:25:05;;;;;;;7.32;4.63;;;;;;;;;;10061729;28;20049;-64
2023/07/07 20:29:57;;;;;;;5.68;4.43;;;;;;;;;;10062355;28;20375;-67
2023/07/07 20:34:49;;;;;;;6.32;3.72;;;;;;;;;;10062115;28;20041;-67
2023/07/07 20:39:41;;;;;;;7.13;4.88;;;;;;;;;;10062498;28;20044;-67
2023/07/07 20:44:33;;;;;;;4.72;3.78;;;;;;;;;;10064353;28;20049;-65
2023/07/07 20:49:26;;;;;;;11.25;4.40;;;;;;;;;;10056129;28;20137;-66
2023/07/07 20:54:17;;;;;;;6.43;4.50;;;;;;;;;;10069703;28;20037;-67
2023/07/07 20:59:15;;;;;;;8.60;4.78;;;;;;;;;;10067482;28;20048;-67
2023/07/07 21:04:10;;;;;;;7.90;4.47;;;;;;;;;;10055105;28;20090;-66
2023/07/07 21:09:02;;;;;;;6.65;4.95;;;;;;;;;;10070902;28;20060;-66
2023/07/07 21:13:54;;;;;;;5.07;4.28;;;;;;;;;;10056085;28;20080;-65
2023/07/07 21:18:46;;;;;;;11.05;4.93;;;;;;;;;;10073537;28;20065;-66
2023/07/07 21:23:38;;;;;;;7.40;4.85;;;;;;;;;;10068970;28;20060;-66
2023/07/07 21:28:30;;;;;;;5.63;4.68;;;;;;;;;;10062446;28;20042;-67
2023/07/07 21:33:22;;;;;;;5.63;4.57;;;;;;;;;;10066613;28;20541;-66
2023/07/07 21:38:15;;;;;;;6.85;4.95;;;;;;;;;;10068990;28;20049;-66
2023/07/07 21:43:07;;;;;;;8.10;4.28;;;;;;;;;;10073503;28;20463;-66
2023/07/07 21:48:03;;;;;;;6.57;3.90;;;;;;;;;;10082058;28;20498;-67
2023/07/07 21:52:55;;;;;;;7.03;4.25;;;;;;;;;;10077754;28;20486;-66
2023/07/07 21:57:55;;;;;;;6.07;4.43;;;;;;;;;;10064455;28;20124;-65
2023/07/07 22:02:49;;;;;;;8.35;3.72;;;;;;;;;;10070781;28;20057;-66
2023/07/07 22:07:42;;;;;;;4.93;3.90;;;;;;;;;;10071180;28;20042;-67
2023/07/07 22:12:34;;;;;;;8.75;4.47;;;;;;;;;;10071707;28;20072;-67
2023/07/07 22:17:25;;;;;;;5.78;3.88;;;;;;;;;;10071277;28;20053;-67
2023/07/07 22:22:17;;;;;;;7.05;4.88;;;;;;;;;;10072028;28;20033;-66
2023/07/07 22:27:14;;;;;;;8.13;4.68;;;;;;;;;;10070247;28;20054;-64
2023/07/07 22:32:13;;;;;;;7.22;4.78;;;;;;;;;;10070049;28;20042;-66
2023/07/07 22:37:12;;;;;;;9.55;4.78;;;;;;;;;;10069429;28;20049;-66
2023/07/07 22:42:10;;;;;;;6.95;4.47;;;;;;;;;;10069298;28;20046;-65
2023/07/07 22:47:02;;;;;;;5.43;4.20;;;;;;;;;;10063124;28;20049;-67
2023/07/07 22:51:54;;;;;;;7.43;3.97;;;;;;;;;;10063097;28;20052;-66
2023/07/07 22:56:48;;;;;;;4.72;3.75;;;;;;;;;;10066682;28;20049;-66
2023/07/07 23:01:39;;;;;;;6.47;4.72;;;;;;;;;;10070222;28;20057;-67
2023/07/07 23:06:31;;;;;;;5.03;4.05;;;;;;;;;;10069147;28;20491;-66
2023/07/07 23:11:23;;;;;;;6.28;3.95;;;;;;;;;;10070403;28;20053;-66
2023/07/07 23:16:16;;;;;;;5.22;3.55;;;;;;;;;;10070187;28;20123;-66
2023/07/07 23:21:10;;;;;;;7.03;4.38;;;;;;;;;;10067158;28;20041;-67
2023/07/07 23:26:02;;;;;;;6.07;4.07;;;;;;;;;;10066938;28;20045;-66
2023/07/07 23:31:05;;;;;;;4.32;3.92;;;;;;;;;;10061615;28;20053;-66
2023/07/07 23:35:58;;;;;;;5.53;4.10;;;;;;;;;;10065498;28;20088;-66
2023/07/07 23:40:51;;;;;;;8.45;4.18;;;;;;;;;;10037759;28;20073;-64
2023/07/07 23:45:44;;;;;;;6.55;4.68;;;;;;;;;;10050606;28;20073;-65
2023/07/07 23:50:51;;;;;;;5.38;3.75;;;;;;;;;;10065450;28;20049;-66
2023/07/07 23:55:43;;;;;;;5.35;4.32;;;;;;;;;;10065438;28;20136;-66
